Terminal Aerodrome Forecast
Issued by NWS Cleveland, OH

Home | Current Version | Previous Version | Graphics & Text | Print | Product List | Glossary On
Versions: 1 2 3 4 5 6 7 8 9 10 11 12 13 14 15 16 17 18 19 20 21
135
FTUS41 KCLE 022342
TAFYNG
TAF
KYNG 022342Z 0300/0324 13015G25KT P6SM SCT050 OVC150
     FM030700 16015G25KT 6SM -SHRA SCT025 OVC035
      TEMPO 0307/0311 3SM -TSRA BKN015 OVC025CB
     FM031100 19015G25KT 5SM -RA SCT025 OVC035
     FM031800 21015G25KT P6SM BKN035 OVC050=

USA.gov is the U.S. government's official web portal to all federal, state and local government web resources and services.